sensor_id;sensor_type;location;lat;lon;timestamp;P1;durP1;ratioP1;P2;durP2;ratioP2
4732;SDS011;2380;53.668;10.008;2022-10-15T00:01:50;21.47;;;13.30;;
4732;SDS011;2380;53.668;10.008;2022-10-15T00:04:22;20.43;;;13.20;;
4732;SDS011;2380;53.668;10.008;2022-10-15T00:06:51;25.90;;;13.97;;
4732;SDS011;2380;53.668;10.008;2022-10-15T00:09:21;23.53;;;13.57;;
4732;SDS011;2380;53.668;10.008;2022-10-15T00:11:50;21.33;;;14.37;;
4732;SDS011;2380;53.668;10.008;2022-10-15T00:14:20;22.93;;;14.23;;
4732;SDS011;2380;53.668;10.008;2022-10-15T00:16:49;26.00;;;14.10;;
4732;SDS011;2380;53.668;10.008;2022-10-15T00:19:18;21.93;;;14.20;;
4732;SDS011;2380;53.668;10.008;2022-10-15T00:21:50;23.27;;;14.37;;
4732;SDS011;2380;53.668;10.008;2022-10-15T00:24:20;24.23;;;14.13;;
4732;SDS011;2380;53.668;10.008;2022-10-15T00:39:40;30.30;;;17.83;;
4732;SDS011;2380;53.668;10.008;2022-10-15T00:42:09;28.70;;;16.20;;
4732;SDS011;2380;53.668;10.008;2022-10-15T00:47:28;35.90;;;17.70;;
4732;SDS011;2380;53.668;10.008;2022-10-15T00:50:00;31.87;;;17.33;;
4732;SDS011;2380;53.668;10.008;2022-10-15T00:52:41;33.37;;;17.87;;
4732;SDS011;2380;53.668;10.008;2022-10-15T00:55:16;27.90;;;16.10;;
4732;SDS011;2380;53.668;10.008;2022-10-15T00:57:50;37.10;;;19.00;;
4732;SDS011;2380;53.668;10.008;2022-10-15T01:00:21;35.13;;;19.80;;
4732;SDS011;2380;53.668;10.008;2022-10-15T01:02:50;48.70;;;26.70;;
4732;SDS011;2380;53.668;10.008;2022-10-15T01:05:20;50.70;;;26.50;;
4732;SDS011;2380;53.668;10.008;2022-10-15T01:07:50;65.37;;;33.33;;
4732;SDS011;2380;53.668;10.008;2022-10-15T01:10:22;33.53;;;19.07;;
4732;SDS011;2380;53.668;10.008;2022-10-15T01:12:56;33.10;;;19.53;;
4732;SDS011;2380;53.668;10.008;2022-10-15T01:15:31;46.47;;;25.10;;
4732;SDS011;2380;53.668;10.008;2022-10-15T01:18:05;81.30;;;42.07;;
4732;SDS011;2380;53.668;10.008;2022-10-15T01:20:42;61.37;;;28.83;;
4732;SDS011;2380;53.668;10.008;2022-10-15T01:26:30;42.40;;;22.33;;
4732;SDS011;2380;53.668;10.008;2022-10-15T01:29:22;47.27;;;25.77;;
4732;SDS011;2380;53.668;10.008;2022-10-15T01:32:04;70.67;;;36.77;;
4732;SDS011;2380;53.668;10.008;2022-10-15T01:34:37;49.90;;;24.70;;
4732;SDS011;2380;53.668;10.008;2022-10-15T01:37:11;67.90;;;33.63;;
4732;SDS011;2380;53.668;10.008;2022-10-15T01:39:48;40.23;;;21.40;;
4732;SDS011;2380;53.668;10.008;2022-10-15T01:42:22;51.53;;;24.53;;
4732;SDS011;2380;53.668;10.008;2022-10-15T01:44:55;46.00;;;24.37;;
4732;SDS011;2380;53.668;10.008;2022-10-15T01:47:29;57.60;;;25.87;;
4732;SDS011;2380;53.668;10.008;2022-10-15T01:50:01;58.70;;;30.90;;
4732;SDS011;2380;53.668;10.008;2022-10-15T01:52:33;49.97;;;26.30;;
4732;SDS011;2380;53.668;10.008;2022-10-15T01:55:06;50.33;;;25.03;;
4732;SDS011;2380;53.668;10.008;2022-10-15T01:57:38;47.37;;;22.80;;
4732;SDS011;2380;53.668;10.008;2022-10-15T02:00:10;52.60;;;27.67;;
4732;SDS011;2380;53.668;10.008;2022-10-15T02:02:42;48.40;;;24.70;;
4732;SDS011;2380;53.668;10.008;2022-10-15T02:05:14;48.73;;;24.97;;
4732;SDS011;2380;53.668;10.008;2022-10-15T02:07:46;42.40;;;22.30;;
4732;SDS011;2380;53.668;10.008;2022-10-15T02:10:21;58.10;;;28.17;;
4732;SDS011;2380;53.668;10.008;2022-10-15T02:12:57;64.40;;;31.73;;
4732;SDS011;2380;53.668;10.008;2022-10-15T02:15:33;55.40;;;29.07;;
4732;SDS011;2380;53.668;10.008;2022-10-15T02:18:08;61.23;;;27.53;;
4732;SDS011;2380;53.668;10.008;2022-10-15T02:20:43;49.07;;;25.30;;
4732;SDS011;2380;53.668;10.008;2022-10-15T02:23:16;49.63;;;23.10;;
4732;SDS011;2380;53.668;10.008;2022-10-15T02:25:47;67.97;;;32.93;;
4732;SDS011;2380;53.668;10.008;2022-10-15T02:28:17;51.43;;;24.87;;
4732;SDS011;2380;53.668;10.008;2022-10-15T02:30:48;52.90;;;25.50;;
4732;SDS011;2380;53.668;10.008;2022-10-15T02:33:23;63.07;;;28.20;;
4732;SDS011;2380;53.668;10.008;2022-10-15T02:35:53;51.07;;;24.37;;
4732;SDS011;2380;53.668;10.008;2022-10-15T02:38:23;48.83;;;23.60;;
4732;SDS011;2380;53.668;10.008;2022-10-15T02:40:53;64.37;;;30.10;;
4732;SDS011;2380;53.668;10.008;2022-10-15T02:43:23;62.73;;;28.20;;
4732;SDS011;2380;53.668;10.008;2022-10-15T02:45:52;62.77;;;27.30;;
4732;SDS011;2380;53.668;10.008;2022-10-15T02:48:24;57.37;;;27.70;;
4732;SDS011;2380;53.668;10.008;2022-10-15T02:50:54;59.30;;;29.33;;
4732;SDS011;2380;53.668;10.008;2022-10-15T02:53:23;63.77;;;29.07;;
4732;SDS011;2380;53.668;10.008;2022-10-15T02:55:53;52.70;;;27.23;;
4732;SDS011;2380;53.668;10.008;2022-10-15T02:58:22;67.03;;;30.97;;
4732;SDS011;2380;53.668;10.008;2022-10-15T03:00:51;53.43;;;26.63;;
4732;SDS011;2380;53.668;10.008;2022-10-15T03:03:23;56.97;;;28.90;;
4732;SDS011;2380;53.668;10.008;2022-10-15T03:05:55;56.37;;;26.13;;
4732;SDS011;2380;53.668;10.008;2022-10-15T03:08:25;65.73;;;27.20;;
4732;SDS011;2380;53.668;10.008;2022-10-15T03:10:54;58.43;;;27.40;;
4732;SDS011;2380;53.668;10.008;2022-10-15T03:13:24;57.70;;;27.00;;
4732;SDS011;2380;53.668;10.008;2022-10-15T03:15:53;61.73;;;28.00;;
4732;SDS011;2380;53.668;10.008;2022-10-15T03:18:25;64.47;;;30.93;;
4732;SDS011;2380;53.668;10.008;2022-10-15T03:20:55;63.17;;;28.27;;
4732;SDS011;2380;53.668;10.008;2022-10-15T03:23:24;53.90;;;26.17;;
4732;SDS011;2380;53.668;10.008;2022-10-15T03:25:54;57.37;;;25.13;;
4732;SDS011;2380;53.668;10.008;2022-10-15T03:28:24;57.20;;;26.57;;
4732;SDS011;2380;53.668;10.008;2022-10-15T03:30:53;59.50;;;27.13;;
4732;SDS011;2380;53.668;10.008;2022-10-15T03:33:25;58.13;;;27.33;;
4732;SDS011;2380;53.668;10.008;2022-10-15T03:35:55;57.40;;;24.40;;
4732;SDS011;2380;53.668;10.008;2022-10-15T03:38:24;50.37;;;25.67;;
4732;SDS011;2380;53.668;10.008;2022-10-15T03:40:54;57.03;;;25.27;;
4732;SDS011;2380;53.668;10.008;2022-10-15T03:43:23;60.50;;;28.00;;
4732;SDS011;2380;53.668;10.008;2022-10-15T03:45:53;65.80;;;26.10;;
4732;SDS011;2380;53.668;10.008;2022-10-15T03:48:23;53.87;;;25.43;;
4732;SDS011;2380;53.668;10.008;2022-10-15T03:50:55;54.30;;;22.90;;
4732;SDS011;2380;53.668;10.008;2022-10-15T03:53:24;56.97;;;25.67;;
4732;SDS011;2380;53.668;10.008;2022-10-15T03:55:54;54.53;;;24.60;;
4732;SDS011;2380;53.668;10.008;2022-10-15T03:58:23;53.40;;;23.60;;
4732;SDS011;2380;53.668;10.008;2022-10-15T04:00:52;53.30;;;25.93;;
4732;SDS011;2380;53.668;10.008;2022-10-15T04:03:22;59.03;;;25.73;;
4732;SDS011;2380;53.668;10.008;2022-10-15T04:05:54;49.50;;;24.07;;
4732;SDS011;2380;53.668;10.008;2022-10-15T04:08:28;50.50;;;24.67;;
4732;SDS011;2380;53.668;10.008;2022-10-15T04:10:57;48.53;;;23.70;;
4732;SDS011;2380;53.668;10.008;2022-10-15T04:13:27;55.27;;;25.90;;
4732;SDS011;2380;53.668;10.008;2022-10-15T04:15:57;46.17;;;21.90;;
4732;SDS011;2380;53.668;10.008;2022-10-15T04:18:26;49.27;;;22.30;;
4732;SDS011;2380;53.668;10.008;2022-10-15T04:21:00;45.33;;;21.83;;
4732;SDS011;2380;53.668;10.008;2022-10-15T04:23:29;51.27;;;22.73;;
4732;SDS011;2380;53.668;10.008;2022-10-15T04:25:59;56.63;;;23.97;;
4732;SDS011;2380;53.668;10.008;2022-10-15T04:28:28;50.07;;;23.17;;
4732;SDS011;2380;53.668;10.008;2022-10-15T04:30:58;49.33;;;23.77;;
4732;SDS011;2380;53.668;10.008;2022-10-15T04:33:28;56.80;;;24.33;;
4732;SDS011;2380;53.668;10.008;2022-10-15T04:36:02;48.13;;;22.70;;
4732;SDS011;2380;53.668;10.008;2022-10-15T04:38:33;51.83;;;24.10;;
4732;SDS011;2380;53.668;10.008;2022-10-15T04:41:03;49.30;;;23.30;;
4732;SDS011;2380;53.668;10.008;2022-10-15T04:43:34;55.70;;;23.43;;
4732;SDS011;2380;53.668;10.008;2022-10-15T04:46:05;54.17;;;22.70;;
4732;SDS011;2380;53.668;10.008;2022-10-15T04:48:36;53.03;;;23.27;;
4732;SDS011;2380;53.668;10.008;2022-10-15T04:51:12;55.97;;;23.00;;
4732;SDS011;2380;53.668;10.008;2022-10-15T04:53:42;52.87;;;23.40;;
4732;SDS011;2380;53.668;10.008;2022-10-15T04:56:12;49.73;;;21.93;;
4732;SDS011;2380;53.668;10.008;2022-10-15T04:58:43;49.23;;;21.73;;
4732;SDS011;2380;53.668;10.008;2022-10-15T05:01:15;53.80;;;22.83;;
4732;SDS011;2380;53.668;10.008;2022-10-15T05:03:46;51.43;;;22.20;;
4732;SDS011;2380;53.668;10.008;2022-10-15T05:06:20;56.00;;;24.87;;
4732;SDS011;2380;53.668;10.008;2022-10-15T05:08:50;58.07;;;24.00;;
4732;SDS011;2380;53.668;10.008;2022-10-15T05:11:20;51.43;;;22.50;;
4732;SDS011;2380;53.668;10.008;2022-10-15T05:13:51;57.07;;;24.83;;
4732;SDS011;2380;53.668;10.008;2022-10-15T05:16:21;57.10;;;25.70;;
4732;SDS011;2380;53.668;10.008;2022-10-15T05:18:51;53.03;;;24.47;;
4732;SDS011;2380;53.668;10.008;2022-10-15T05:21:26;57.27;;;24.87;;
4732;SDS011;2380;53.668;10.008;2022-10-15T05:23:56;63.47;;;27.53;;
4732;SDS011;2380;53.668;10.008;2022-10-15T05:26:26;66.57;;;25.77;;
4732;SDS011;2380;53.668;10.008;2022-10-15T05:28:57;63.60;;;24.43;;
4732;SDS011;2380;53.668;10.008;2022-10-15T05:31:28;64.70;;;26.43;;
4732;SDS011;2380;53.668;10.008;2022-10-15T05:33:58;66.50;;;26.40;;
4732;SDS011;2380;53.668;10.008;2022-10-15T05:36:30;64.60;;;25.30;;
4732;SDS011;2380;53.668;10.008;2022-10-15T05:39:00;72.83;;;26.50;;
4732;SDS011;2380;53.668;10.008;2022-10-15T05:41:32;63.60;;;25.80;;
4732;SDS011;2380;53.668;10.008;2022-10-15T05:44:01;70.73;;;27.33;;
4732;SDS011;2380;53.668;10.008;2022-10-15T05:46:31;66.60;;;26.60;;
4732;SDS011;2380;53.668;10.008;2022-10-15T05:49:00;69.47;;;25.70;;
4732;SDS011;2380;53.668;10.008;2022-10-15T05:51:32;68.00;;;27.07;;
4732;SDS011;2380;53.668;10.008;2022-10-15T05:54:02;70.20;;;27.33;;
4732;SDS011;2380;53.668;10.008;2022-10-15T05:56:31;70.33;;;25.57;;
4732;SDS011;2380;53.668;10.008;2022-10-15T05:59:01;83.50;;;26.53;;
4732;SDS011;2380;53.668;10.008;2022-10-15T06:01:30;67.80;;;25.60;;
4732;SDS011;2380;53.668;10.008;2022-10-15T06:04:00;73.73;;;25.63;;
4732;SDS011;2380;53.668;10.008;2022-10-15T06:06:32;72.80;;;27.60;;
4732;SDS011;2380;53.668;10.008;2022-10-15T06:09:01;66.83;;;26.50;;
4732;SDS011;2380;53.668;10.008;2022-10-15T06:11:31;76.37;;;26.87;;
4732;SDS011;2380;53.668;10.008;2022-10-15T06:14:00;85.60;;;30.37;;
4732;SDS011;2380;53.668;10.008;2022-10-15T06:16:30;77.33;;;28.17;;
4732;SDS011;2380;53.668;10.008;2022-10-15T06:18:59;55.63;;;19.30;;
4732;SDS011;2380;53.668;10.008;2022-10-15T06:21:32;72.73;;;27.10;;
4732;SDS011;2380;53.668;10.008;2022-10-15T06:24:01;81.43;;;28.13;;
4732;SDS011;2380;53.668;10.008;2022-10-15T06:26:35;79.77;;;28.80;;
4732;SDS011;2380;53.668;10.008;2022-10-15T06:29:04;80.67;;;27.47;;
4732;SDS011;2380;53.668;10.008;2022-10-15T06:31:34;78.67;;;29.70;;
4732;SDS011;2380;53.668;10.008;2022-10-15T06:34:03;70.20;;;27.53;;
4732;SDS011;2380;53.668;10.008;2022-10-15T06:36:35;77.70;;;29.23;;
4732;SDS011;2380;53.668;10.008;2022-10-15T06:39:05;82.23;;;27.43;;
4732;SDS011;2380;53.668;10.008;2022-10-15T06:41:35;81.07;;;29.60;;
4732;SDS011;2380;53.668;10.008;2022-10-15T06:44:04;75.33;;;28.43;;
4732;SDS011;2380;53.668;10.008;2022-10-15T06:46:33;75.13;;;28.90;;
4732;SDS011;2380;53.668;10.008;2022-10-15T06:49:03;74.40;;;29.27;;
4732;SDS011;2380;53.668;10.008;2022-10-15T06:51:35;82.13;;;28.97;;
4732;SDS011;2380;53.668;10.008;2022-10-15T06:54:05;86.03;;;31.30;;
4732;SDS011;2380;53.668;10.008;2022-10-15T06:56:34;83.47;;;30.10;;
4732;SDS011;2380;53.668;10.008;2022-10-15T06:59:04;76.83;;;28.60;;
4732;SDS011;2380;53.668;10.008;2022-10-15T07:01:33;87.03;;;30.37;;
4732;SDS011;2380;53.668;10.008;2022-10-15T07:04:07;86.77;;;31.70;;
4732;SDS011;2380;53.668;10.008;2022-10-15T07:06:39;95.53;;;33.43;;
4732;SDS011;2380;53.668;10.008;2022-10-15T07:09:09;81.17;;;28.07;;
4732;SDS011;2380;53.668;10.008;2022-10-15T07:11:38;95.70;;;33.93;;
4732;SDS011;2380;53.668;10.008;2022-10-15T07:14:07;93.90;;;30.10;;
4732;SDS011;2380;53.668;10.008;2022-10-15T07:16:37;84.27;;;30.47;;
4732;SDS011;2380;53.668;10.008;2022-10-15T07:19:06;79.90;;;29.67;;
4732;SDS011;2380;53.668;10.008;2022-10-15T07:21:38;89.07;;;31.80;;
4732;SDS011;2380;53.668;10.008;2022-10-15T07:24:08;79.00;;;28.30;;
4732;SDS011;2380;53.668;10.008;2022-10-15T07:26:37;99.87;;;35.20;;
4732;SDS011;2380;53.668;10.008;2022-10-15T07:29:07;72.70;;;28.90;;
4732;SDS011;2380;53.668;10.008;2022-10-15T07:31:36;87.67;;;29.17;;
4732;SDS011;2380;53.668;10.008;2022-10-15T07:34:06;83.43;;;28.63;;
4732;SDS011;2380;53.668;10.008;2022-10-15T07:36:35;73.17;;;29.10;;
4732;SDS011;2380;53.668;10.008;2022-10-15T07:39:07;78.50;;;29.73;;
4732;SDS011;2380;53.668;10.008;2022-10-15T07:41:37;67.37;;;27.20;;
4732;SDS011;2380;53.668;10.008;2022-10-15T07:44:06;79.07;;;28.30;;
4732;SDS011;2380;53.668;10.008;2022-10-15T07:46:36;74.33;;;28.50;;
4732;SDS011;2380;53.668;10.008;2022-10-15T07:49:05;65.90;;;26.20;;
4732;SDS011;2380;53.668;10.008;2022-10-15T07:51:35;71.27;;;27.27;;
4732;SDS011;2380;53.668;10.008;2022-10-15T07:54:07;66.70;;;27.63;;
4732;SDS011;2380;53.668;10.008;2022-10-15T07:56:36;69.37;;;26.93;;
4732;SDS011;2380;53.668;10.008;2022-10-15T07:59:06;68.03;;;26.03;;
4732;SDS011;2380;53.668;10.008;2022-10-15T08:01:36;62.27;;;25.17;;
4732;SDS011;2380;53.668;10.008;2022-10-15T08:04:05;66.57;;;25.27;;
4732;SDS011;2380;53.668;10.008;2022-10-15T08:06:34;62.70;;;25.87;;
4732;SDS011;2380;53.668;10.008;2022-10-15T08:09:07;76.57;;;26.93;;
4732;SDS011;2380;53.668;10.008;2022-10-15T08:11:36;66.07;;;25.07;;
4732;SDS011;2380;53.668;10.008;2022-10-15T08:14:05;63.80;;;23.93;;
4732;SDS011;2380;53.668;10.008;2022-10-15T08:16:35;60.87;;;26.87;;
4732;SDS011;2380;53.668;10.008;2022-10-15T08:19:04;58.43;;;25.90;;
4732;SDS011;2380;53.668;10.008;2022-10-15T08:21:34;59.40;;;24.00;;
4732;SDS011;2380;53.668;10.008;2022-10-15T08:24:03;62.53;;;24.73;;
4732;SDS011;2380;53.668;10.008;2022-10-15T08:26:36;61.30;;;25.20;;
4732;SDS011;2380;53.668;10.008;2022-10-15T08:29:05;56.07;;;24.53;;
4732;SDS011;2380;53.668;10.008;2022-10-15T08:31:35;61.63;;;27.47;;
4732;SDS011;2380;53.668;10.008;2022-10-15T08:34:04;58.70;;;25.33;;
4732;SDS011;2380;53.668;10.008;2022-10-15T08:36:34;55.10;;;22.40;;
4732;SDS011;2380;53.668;10.008;2022-10-15T08:39:04;52.13;;;22.10;;
4732;SDS011;2380;53.668;10.008;2022-10-15T08:41:37;49.97;;;20.50;;
4732;SDS011;2380;53.668;10.008;2022-10-15T08:44:10;45.03;;;21.20;;
4732;SDS011;2380;53.668;10.008;2022-10-15T08:46:44;50.50;;;22.80;;
4732;SDS011;2380;53.668;10.008;2022-10-15T08:49:19;49.13;;;21.93;;
4732;SDS011;2380;53.668;10.008;2022-10-15T08:51:56;50.93;;;23.00;;
4732;SDS011;2380;53.668;10.008;2022-10-15T08:54:34;45.70;;;22.10;;
4732;SDS011;2380;53.668;10.008;2022-10-15T08:57:07;53.13;;;22.13;;
4732;SDS011;2380;53.668;10.008;2022-10-15T08:59:43;51.27;;;22.23;;
4732;SDS011;2380;53.668;10.008;2022-10-15T09:02:16;61.80;;;28.30;;
4732;SDS011;2380;53.668;10.008;2022-10-15T09:04:49;48.73;;;22.77;;
4732;SDS011;2380;53.668;10.008;2022-10-15T09:07:23;51.10;;;24.53;;
4732;SDS011;2380;53.668;10.008;2022-10-15T09:10:00;49.13;;;23.50;;
4732;SDS011;2380;53.668;10.008;2022-10-15T09:12:35;46.67;;;23.00;;
4732;SDS011;2380;53.668;10.008;2022-10-15T09:15:13;43.53;;;22.83;;
4732;SDS011;2380;53.668;10.008;2022-10-15T09:17:54;45.90;;;22.17;;
4732;SDS011;2380;53.668;10.008;2022-10-15T09:20:24;52.40;;;25.00;;
4732;SDS011;2380;53.668;10.008;2022-10-15T09:22:54;50.13;;;24.43;;
4732;SDS011;2380;53.668;10.008;2022-10-15T09:25:27;58.50;;;29.23;;
4732;SDS011;2380;53.668;10.008;2022-10-15T09:28:01;43.23;;;20.50;;
4732;SDS011;2380;53.668;10.008;2022-10-15T09:30:38;41.67;;;20.10;;
4732;SDS011;2380;53.668;10.008;2022-10-15T09:33:12;48.47;;;22.90;;
4732;SDS011;2380;53.668;10.008;2022-10-15T09:35:45;36.20;;;17.80;;
4732;SDS011;2380;53.668;10.008;2022-10-15T09:38:22;35.97;;;18.50;;
4732;SDS011;2380;53.668;10.008;2022-10-15T09:41:02;34.20;;;16.63;;
4732;SDS011;2380;53.668;10.008;2022-10-15T09:43:43;31.43;;;16.50;;
4732;SDS011;2380;53.668;10.008;2022-10-15T09:46:14;33.67;;;18.40;;
4732;SDS011;2380;53.668;10.008;2022-10-15T09:48:45;29.37;;;15.47;;
4732;SDS011;2380;53.668;10.008;2022-10-15T09:51:18;37.43;;;17.27;;
4732;SDS011;2380;53.668;10.008;2022-10-15T09:53:55;27.00;;;13.27;;
4732;SDS011;2380;53.668;10.008;2022-10-15T09:56:33;32.20;;;16.83;;
4732;SDS011;2380;53.668;10.008;2022-10-15T09:59:05;29.30;;;14.30;;
4732;SDS011;2380;53.668;10.008;2022-10-15T10:01:35;27.10;;;14.07;;
4732;SDS011;2380;53.668;10.008;2022-10-15T10:04:09;36.70;;;18.70;;
4732;SDS011;2380;53.668;10.008;2022-10-15T10:06:44;32.23;;;17.83;;
4732;SDS011;2380;53.668;10.008;2022-10-15T10:09:15;28.80;;;14.93;;
4732;SDS011;2380;53.668;10.008;2022-10-15T10:11:49;26.47;;;13.37;;
4732;SDS011;2380;53.668;10.008;2022-10-15T10:14:21;28.70;;;13.70;;
4732;SDS011;2380;53.668;10.008;2022-10-15T10:19:43;26.60;;;13.97;;
4732;SDS011;2380;53.668;10.008;2022-10-15T10:22:15;32.10;;;16.50;;
4732;SDS011;2380;53.668;10.008;2022-10-15T10:24:46;27.03;;;14.93;;
4732;SDS011;2380;53.668;10.008;2022-10-15T10:27:22;30.27;;;13.80;;
4732;SDS011;2380;53.668;10.008;2022-10-15T10:29:54;29.50;;;13.73;;
4732;SDS011;2380;53.668;10.008;2022-10-15T10:32:27;29.70;;;14.20;;
4732;SDS011;2380;53.668;10.008;2022-10-15T10:34:58;29.50;;;13.17;;
4732;SDS011;2380;53.668;10.008;2022-10-15T10:37:28;27.40;;;14.10;;
4732;SDS011;2380;53.668;10.008;2022-10-15T10:39:58;23.67;;;12.57;;
4732;SDS011;2380;53.668;10.008;2022-10-15T10:42:34;32.97;;;13.87;;
4732;SDS011;2380;53.668;10.008;2022-10-15T10:45:18;27.53;;;13.80;;
4732;SDS011;2380;53.668;10.008;2022-10-15T10:47:49;28.80;;;15.73;;
4732;SDS011;2380;53.668;10.008;2022-10-15T10:50:29;27.80;;;13.73;;
4732;SDS011;2380;53.668;10.008;2022-10-15T10:53:19;23.10;;;13.93;;
4732;SDS011;2380;53.668;10.008;2022-10-15T10:55:50;28.20;;;13.40;;
4732;SDS011;2380;53.668;10.008;2022-10-15T10:58:23;23.33;;;12.60;;
4732;SDS011;2380;53.668;10.008;2022-10-15T11:00:55;25.20;;;12.90;;
4732;SDS011;2380;53.668;10.008;2022-10-15T11:03:29;19.87;;;11.63;;
4732;SDS011;2380;53.668;10.008;2022-10-15T11:06:04;25.20;;;11.60;;
4732;SDS011;2380;53.668;10.008;2022-10-15T11:08:43;25.83;;;13.10;;
4732;SDS011;2380;53.668;10.008;2022-10-15T11:11:16;23.40;;;12.50;;
4732;SDS011;2380;53.668;10.008;2022-10-15T11:13:57;24.57;;;11.73;;
4732;SDS011;2380;53.668;10.008;2022-10-15T11:16:32;21.17;;;10.30;;
4732;SDS011;2380;53.668;10.008;2022-10-15T11:19:11;19.40;;;10.90;;
4732;SDS011;2380;53.668;10.008;2022-10-15T11:22:09;18.70;;;10.43;;
4732;SDS011;2380;53.668;10.008;2022-10-15T11:24:47;23.10;;;9.80;;
4732;SDS011;2380;53.668;10.008;2022-10-15T11:27:37;16.80;;;8.67;;
4732;SDS011;2380;53.668;10.008;2022-10-15T11:30:21;14.73;;;8.23;;
4732;SDS011;2380;53.668;10.008;2022-10-15T11:33:00;12.53;;;6.80;;
4732;SDS011;2380;53.668;10.008;2022-10-15T11:35:42;21.17;;;9.37;;
4732;SDS011;2380;53.668;10.008;2022-10-15T11:38:22;14.20;;;8.60;;
4732;SDS011;2380;53.668;10.008;2022-10-15T11:40:59;23.83;;;11.27;;
4732;SDS011;2380;53.668;10.008;2022-10-15T11:43:42;14.00;;;8.57;;
4732;SDS011;2380;53.668;10.008;2022-10-15T11:46:27;18.30;;;8.90;;
4732;SDS011;2380;53.668;10.008;2022-10-15T11:49:05;14.30;;;7.70;;
4732;SDS011;2380;53.668;10.008;2022-10-15T11:51:48;15.00;;;8.90;;
4732;SDS011;2380;53.668;10.008;2022-10-15T11:54:25;14.87;;;9.60;;
4732;SDS011;2380;53.668;10.008;2022-10-15T11:56:58;21.50;;;10.30;;
4732;SDS011;2380;53.668;10.008;2022-10-15T11:59:31;14.87;;;6.90;;
4732;SDS011;2380;53.668;10.008;2022-10-15T12:02:07;10.47;;;6.00;;
4732;SDS011;2380;53.668;10.008;2022-10-15T12:04:41;7.63;;;5.27;;
4732;SDS011;2380;53.668;10.008;2022-10-15T12:07:14;12.40;;;5.60;;
4732;SDS011;2380;53.668;10.008;2022-10-15T12:09:47;7.90;;;4.50;;
4732;SDS011;2380;53.668;10.008;2022-10-15T12:12:36;9.13;;;4.93;;
4732;SDS011;2380;53.668;10.008;2022-10-15T12:15:14;8.03;;;4.30;;
4732;SDS011;2380;53.668;10.008;2022-10-15T12:17:54;11.30;;;4.37;;
4732;SDS011;2380;53.668;10.008;2022-10-15T12:20:26;6.80;;;3.50;;
4732;SDS011;2380;53.668;10.008;2022-10-15T12:22:57;6.63;;;3.27;;
4732;SDS011;2380;53.668;10.008;2022-10-15T12:28:15;7.33;;;3.37;;
4732;SDS011;2380;53.668;10.008;2022-10-15T12:30:57;6.23;;;3.23;;
4732;SDS011;2380;53.668;10.008;2022-10-15T12:33:34;9.90;;;3.03;;
4732;SDS011;2380;53.668;10.008;2022-10-15T12:36:06;8.70;;;3.87;;
4732;SDS011;2380;53.668;10.008;2022-10-15T12:38:50;9.10;;;3.30;;
4732;SDS011;2380;53.668;10.008;2022-10-15T12:41:36;6.47;;;2.60;;
4732;SDS011;2380;53.668;10.008;2022-10-15T12:44:07;7.47;;;2.67;;
4732;SDS011;2380;53.668;10.008;2022-10-15T12:46:43;6.20;;;3.03;;
4732;SDS011;2380;53.668;10.008;2022-10-15T12:55:32;8.53;;;2.60;;
4732;SDS011;2380;53.668;10.008;2022-10-15T12:58:03;4.73;;;2.70;;
4732;SDS011;2380;53.668;10.008;2022-10-15T13:00:35;6.20;;;3.00;;
4732;SDS011;2380;53.668;10.008;2022-10-15T13:03:16;5.73;;;3.10;;
4732;SDS011;2380;53.668;10.008;2022-10-15T13:05:51;5.83;;;2.70;;
4732;SDS011;2380;53.668;10.008;2022-10-15T13:08:22;8.93;;;3.33;;
4732;SDS011;2380;53.668;10.008;2022-10-15T13:10:56;8.77;;;4.27;;
4732;SDS011;2380;53.668;10.008;2022-10-15T13:13:27;8.70;;;3.80;;
4732;SDS011;2380;53.668;10.008;2022-10-15T13:15:58;10.63;;;3.60;;
4732;SDS011;2380;53.668;10.008;2022-10-15T13:18:28;12.60;;;3.60;;
4732;SDS011;2380;53.668;10.008;2022-10-15T13:21:01;7.43;;;3.60;;
4732;SDS011;2380;53.668;10.008;2022-10-15T13:23:35;7.30;;;3.40;;
4732;SDS011;2380;53.668;10.008;2022-10-15T13:26:11;9.07;;;3.80;;
4732;SDS011;2380;53.668;10.008;2022-10-15T13:28:44;9.87;;;3.97;;
4732;SDS011;2380;53.668;10.008;2022-10-15T13:31:15;13.73;;;3.67;;
4732;SDS011;2380;53.668;10.008;2022-10-15T13:33:55;10.50;;;4.00;;
4732;SDS011;2380;53.668;10.008;2022-10-15T13:36:30;10.17;;;4.50;;
4732;SDS011;2380;53.668;10.008;2022-10-15T13:39:02;9.60;;;4.27;;
4732;SDS011;2380;53.668;10.008;2022-10-15T13:41:34;7.10;;;4.03;;
4732;SDS011;2380;53.668;10.008;2022-10-15T13:44:05;12.67;;;4.70;;
4732;SDS011;2380;53.668;10.008;2022-10-15T13:46:35;7.90;;;4.63;;
4732;SDS011;2380;53.668;10.008;2022-10-15T13:49:08;14.73;;;6.70;;
4732;SDS011;2380;53.668;10.008;2022-10-15T13:51:42;7.80;;;4.77;;
4732;SDS011;2380;53.668;10.008;2022-10-15T13:54:14;10.60;;;4.50;;
4732;SDS011;2380;53.668;10.008;2022-10-15T13:56:47;7.90;;;4.37;;
4732;SDS011;2380;53.668;10.008;2022-10-15T13:59:20;10.50;;;5.03;;
4732;SDS011;2380;53.668;10.008;2022-10-15T14:01:50;13.50;;;4.40;;
4732;SDS011;2380;53.668;10.008;2022-10-15T14:04:26;8.80;;;5.20;;
4732;SDS011;2380;53.668;10.008;2022-10-15T14:06:59;7.20;;;4.80;;
4732;SDS011;2380;53.668;10.008;2022-10-15T14:09:30;13.03;;;5.00;;
4732;SDS011;2380;53.668;10.008;2022-10-15T14:12:02;7.97;;;4.80;;
4732;SDS011;2380;53.668;10.008;2022-10-15T14:14:34;12.53;;;5.97;;
4732;SDS011;2380;53.668;10.008;2022-10-15T14:17:06;9.83;;;6.47;;
4732;SDS011;2380;53.668;10.008;2022-10-15T14:19:38;10.97;;;6.60;;
4732;SDS011;2380;53.668;10.008;2022-10-15T14:22:16;6.60;;;4.40;;
4732;SDS011;2380;53.668;10.008;2022-10-15T14:24:47;9.80;;;5.53;;
4732;SDS011;2380;53.668;10.008;2022-10-15T14:27:20;8.93;;;5.67;;
4732;SDS011;2380;53.668;10.008;2022-10-15T14:29:51;12.00;;;6.53;;
4732;SDS011;2380;53.668;10.008;2022-10-15T14:32:23;11.33;;;6.93;;
4732;SDS011;2380;53.668;10.008;2022-10-15T14:34:55;19.03;;;7.60;;
4732;SDS011;2380;53.668;10.008;2022-10-15T14:37:31;13.83;;;7.97;;
4732;SDS011;2380;53.668;10.008;2022-10-15T14:40:15;15.23;;;8.57;;
4732;SDS011;2380;53.668;10.008;2022-10-15T14:42:47;18.37;;;7.87;;
4732;SDS011;2380;53.668;10.008;2022-10-15T14:45:20;16.43;;;8.90;;
4732;SDS011;2380;53.668;10.008;2022-10-15T14:47:52;18.00;;;8.57;;
4732;SDS011;2380;53.668;10.008;2022-10-15T14:50:23;14.40;;;8.70;;
4732;SDS011;2380;53.668;10.008;2022-10-15T14:52:56;13.77;;;8.73;;
4732;SDS011;2380;53.668;10.008;2022-10-15T14:55:27;12.43;;;8.80;;
4732;SDS011;2380;53.668;10.008;2022-10-15T14:58:06;20.10;;;9.97;;
4732;SDS011;2380;53.668;10.008;2022-10-15T15:00:38;13.53;;;8.60;;
4732;SDS011;2380;53.668;10.008;2022-10-15T15:03:10;14.87;;;9.30;;
4732;SDS011;2380;53.668;10.008;2022-10-15T15:05:42;16.90;;;9.43;;
4732;SDS011;2380;53.668;10.008;2022-10-15T15:08:16;15.67;;;10.77;;
4732;SDS011;2380;53.668;10.008;2022-10-15T15:10:46;17.67;;;10.60;;
4732;SDS011;2380;53.668;10.008;2022-10-15T15:13:17;17.23;;;11.00;;
4732;SDS011;2380;53.668;10.008;2022-10-15T15:15:48;18.27;;;10.53;;
4732;SDS011;2380;53.668;10.008;2022-10-15T15:18:18;21.83;;;11.43;;
4732;SDS011;2380;53.668;10.008;2022-10-15T15:20:48;17.50;;;11.70;;
4732;SDS011;2380;53.668;10.008;2022-10-15T15:23:21;18.27;;;11.17;;
4732;SDS011;2380;53.668;10.008;2022-10-15T15:25:52;20.20;;;11.03;;
4732;SDS011;2380;53.668;10.008;2022-10-15T15:28:22;15.63;;;10.40;;
4732;SDS011;2380;53.668;10.008;2022-10-15T15:30:55;17.57;;;11.30;;
4732;SDS011;2380;53.668;10.008;2022-10-15T15:33:25;18.00;;;11.17;;
4732;SDS011;2380;53.668;10.008;2022-10-15T15:35:59;16.63;;;10.93;;
4732;SDS011;2380;53.668;10.008;2022-10-15T15:38:31;18.60;;;11.90;;
4732;SDS011;2380;53.668;10.008;2022-10-15T15:41:21;17.03;;;11.40;;